Time;durP1;ratioP1;P1;durP2;ratioP2;P2;SDS_P1;SDS_P2;PMS_P1;PMS_P2;Temp;Humidity;BMP_temperature;BMP_pressure;BME280_temperature;BME280_humidity;BME280_pressure;Samples;Min_cycle;Max_cycle;Signal;HPM_P1;HPM_P2
2022/12/07 00:01:50;;;;;;;7.93;3.42;;;;;;;-0.37;100.00;98394.41;4203890;28;20131;-76
2022/12/07 00:03:53;;;;;;;4.43;3.15;;;;;;;-0.39;100.00;98399.38;4218765;27;20054;-76
2022/12/07 00:05:57;;;;;;;4.97;3.20;;;;;;;-0.39;100.00;98391.22;4211496;28;20071;-76
2022/12/07 00:07:57;;;;;;;6.57;3.20;;;;;;;-0.42;100.00;98391.81;4219738;28;20190;-76
2022/12/07 00:09:58;;;;;;;4.70;3.00;;;;;;;-0.43;100.00;98396.44;4220047;27;20079;-76
2022/12/07 00:11:58;;;;;;;4.50;2.97;;;;;;;-0.45;100.00;98397.88;4220327;27;20126;-76
2022/12/07 00:14:02;;;;;;;5.72;3.30;;;;;;;-0.45;100.00;98389.72;4209361;28;20121;-76
2022/12/07 00:16:06;;;;;;;3.78;2.50;;;;;;;-0.42;100.00;98389.91;4217224;28;20077;-76
2022/12/07 00:18:07;;;;;;;4.13;2.75;;;;;;;-0.33;100.00;98382.63;4219589;28;20043;-76
2022/12/07 00:20:07;;;;;;;6.10;3.67;;;;;;;-0.28;100.00;98373.53;4219410;28;20066;-76
2022/12/07 00:22:08;;;;;;;3.88;2.88;;;;;;;-0.27;100.00;98388.72;4219241;27;20498;-76
2022/12/07 00:24:10;;;;;;;4.80;3.22;;;;;;;-0.26;100.00;98376.75;4218478;27;20369;-76
2022/12/07 00:26:13;;;;;;;5.90;3.38;;;;;;;-0.26;100.00;98374.03;4218627;28;20031;-76
2022/12/07 00:28:14;;;;;;;5.63;3.33;;;;;;;-0.24;100.00;98371.81;4218305;28;20028;-76
2022/12/07 00:30:14;;;;;;;6.05;3.63;;;;;;;-0.23;100.00;98357.09;4202723;28;20366;-76
2022/12/07 00:32:15;;;;;;;6.82;3.80;;;;;;;-0.18;100.00;98353.44;4218700;28;20523;-76
2022/12/07 00:34:18;;;;;;;8.20;3.88;;;;;;;-0.23;100.00;98359.81;4218478;28;20495;-76
2022/12/07 00:36:21;;;;;;;6.35;3.55;;;;;;;-0.23;100.00;98354.38;4218800;28;20112;-76
2022/12/07 00:38:21;;;;;;;6.18;3.47;;;;;;;-0.23;100.00;98351.66;4219654;27;20050;-76
2022/12/07 00:40:22;;;;;;;6.53;3.90;;;;;;;-0.22;100.00;98353.28;4219830;28;20378;-76
2022/12/07 00:42:22;;;;;;;6.70;3.75;;;;;;;-0.19;100.00;98349.91;4219553;27;20100;-77
2022/12/07 00:44:22;;;;;;;5.68;3.65;;;;;;;-0.22;100.00;98345.13;4217473;27;20039;-76
2022/12/07 00:46:23;;;;;;;7.28;4.10;;;;;;;-0.18;100.00;98356.97;4218784;27;20245;-76
2022/12/07 00:48:24;;;;;;;7.13;3.70;;;;;;;-0.23;100.00;98345.44;4219064;28;20379;-76
2022/12/07 00:50:24;;;;;;;7.75;4.50;;;;;;;-0.32;100.00;98346.19;4219856;27;20282;-76
2022/12/07 00:52:25;;;;;;;14.38;5.22;;;;;;;-0.24;100.00;98347.34;4219052;27;20776;-76
2022/12/07 00:54:25;;;;;;;8.45;4.50;;;;;;;-0.16;100.00;98349.31;4218465;27;20036;-76
2022/12/07 00:56:27;;;;;;;7.93;4.40;;;;;;;-0.18;100.00;98353.44;4217343;28;20051;-76
2022/12/07 00:58:27;;;;;;;9.13;4.65;;;;;;;-0.21;100.00;98354.06;4218304;28;20036;-76
2022/12/07 01:00:28;;;;;;;6.43;4.72;;;;;;;-0.25;100.00;98340.28;4215204;28;20035;-76
2022/12/07 01:02:28;;;;;;;6.45;4.43;;;;;;;-0.30;100.00;98341.22;4218415;28;20394;-76
2022/12/07 01:04:29;;;;;;;6.97;4.63;;;;;;;-0.34;100.00;98334.78;4218830;27;20043;-76
2022/12/07 01:06:30;;;;;;;8.73;5.47;;;;;;;-0.36;100.00;98336.22;4217946;27;20043;-76
2022/12/07 01:08:31;;;;;;;7.07;4.53;;;;;;;-0.38;100.00;98333.81;4219400;27;20131;-76
2022/12/07 01:10:32;;;;;;;7.38;4.88;;;;;;;-0.38;100.00;98336.53;4218977;28;20534;-76
2022/12/07 01:12:32;;;;;;;9.32;5.20;;;;;;;-0.38;100.00;98335.72;4215381;28;20461;-76
2022/12/07 01:14:32;;;;;;;8.88;5.18;;;;;;;-0.37;100.00;98329.97;4216185;28;20103;-77
2022/12/07 01:16:33;;;;;;;6.88;4.30;;;;;;;-0.38;100.00;98319.41;4217572;28;20447;-76
2022/12/07 01:18:35;;;;;;;8.45;5.05;;;;;;;-0.40;100.00;98322.47;4218139;28;20166;-76
2022/12/07 01:20:36;;;;;;;9.35;5.65;;;;;;;-0.40;100.00;98318.94;4207815;28;20438;-76
2022/12/07 01:22:39;;;;;;;10.60;5.15;;;;;;;-0.39;100.00;98317.81;4217819;28;20086;-76
2022/12/07 01:24:39;;;;;;;9.48;4.88;;;;;;;-0.39;100.00;98321.34;4218251;28;20039;-76
2022/12/07 01:26:39;;;;;;;8.88;4.70;;;;;;;-0.36;100.00;98317.19;4216869;28;20442;-76
2022/12/07 01:28:40;;;;;;;8.43;5.05;;;;;;;-0.34;100.00;98315.75;4220043;27;20693;-76
2022/12/07 01:30:40;;;;;;;8.38;5.32;;;;;;;-0.24;100.00;98314.72;4219512;27;20103;-76
2022/12/07 01:32:41;;;;;;;9.10;5.00;;;;;;;-0.25;100.00;98301.41;4218936;28;20031;-76
2022/12/07 01:34:41;;;;;;;6.28;3.97;;;;;;;-0.17;100.00;98298.75;4218260;28;20051;-76
2022/12/07 01:36:41;;;;;;;6.28;3.97;;;;;;;-0.14;100.00;98308.22;4219593;27;20039;-76
2022/12/07 01:38:43;;;;;;;8.18;4.03;;;;;;;-0.10;100.00;98304.53;4217517;28;20083;-76
2022/12/07 01:40:43;;;;;;;6.68;4.03;;;;;;;-0.08;100.00;98299.63;4218168;27;20040;-76
2022/12/07 01:42:43;;;;;;;6.90;4.13;;;;;;;-0.01;100.00;98308.09;4218055;28;20468;-76
2022/12/07 01:45:18;;;;;;;6.07;3.72;;;;;;;0.02;100.00;98314.84;4217131;28;20070;-76
2022/12/07 01:47:18;;;;;;;5.75;3.80;;;;;;;0.04;100.00;98314.53;4218474;28;20499;-76
2022/12/07 01:49:28;;;;;;;7.68;4.47;;;;;;;0.08;100.00;98315.50;4211330;28;20048;-76
2022/12/07 01:51:29;;;;;;;5.13;3.60;;;;;;;0.12;100.00;98308.34;4216410;28;20104;-76
2022/12/07 01:53:31;;;;;;;5.90;3.60;;;;;;;0.08;100.00;98305.41;4217212;27;20356;-76
2022/12/07 01:55:33;;;;;;;7.18;4.20;;;;;;;0.04;100.00;98298.22;4217413;28;20047;-76
2022/12/07 01:57:36;;;;;;;6.85;3.80;;;;;;;0.04;100.00;98293.56;4218927;28;20050;-76
2022/12/07 01:59:37;;;;;;;6.18;3.78;;;;;;;0.12;100.00;98298.25;4218971;28;20047;-76
2022/12/07 02:01:38;;;;;;;6.47;4.25;;;;;;;0.18;100.00;98293.47;4217258;28;20105;-76
2022/12/07 02:03:40;;;;;;;6.13;4.03;;;;;;;0.21;100.00;98293.66;4218326;27;20478;-76
2022/12/07 02:05:43;;;;;;;5.95;3.63;;;;;;;0.17;100.00;98298.13;4218305;28;20705;-76
2022/12/07 02:07:46;;;;;;;7.03;4.63;;;;;;;0.19;100.00;98286.91;4218222;28;20059;-76
2022/12/07 02:09:47;;;;;;;7.20;4.57;;;;;;;0.20;100.00;98283.88;4218124;28;20042;-76
2022/12/07 02:11:47;;;;;;;7.00;4.43;;;;;;;0.18;100.00;98283.41;4218301;27;20547;-76
2022/12/07 02:13:48;;;;;;;8.18;4.50;;;;;;;0.23;100.00;98291.41;4221091;27;20050;-76
2022/12/07 02:16:13;;;;;;;7.15;4.60;;;;;;;0.25;100.00;98280.22;4206189;28;20040;-76
2022/12/07 02:18:32;;;;;;;7.43;4.25;;;;;;;0.28;100.00;98283.09;4220103;27;20047;-76
2022/12/07 02:20:48;;;;;;;10.32;5.60;;;;;;;0.26;100.00;98279.09;4221520;28;20086;-76
2022/12/07 02:23:04;;;;;;;8.75;4.95;;;;;;;0.24;100.00;98276.69;4216976;28;20070;-76
2022/12/07 02:25:32;;;;;;;16.27;8.73;;;;;;;0.25;100.00;98275.59;4220849;28;20040;-76
2022/12/07 02:27:47;;;;;;;16.38;7.65;;;;;;;0.20;100.00;98275.72;4221437;27;20143;-77
2022/12/07 02:30:01;;;;;;;21.90;10.55;;;;;;;0.25;100.00;98285.66;4235776;27;20039;-76
2022/12/07 02:32:15;;;;;;;27.38;12.50;;;;;;;0.19;100.00;98285.00;4220924;28;20050;-76
2022/12/07 02:34:24;;;;;;;16.60;8.98;;;;;;;0.20;100.00;98280.34;4211181;28;20019;-76
2022/12/07 02:36:30;;;;;;;15.95;8.98;;;;;;;0.19;100.00;98282.28;4222528;28;20035;-76
2022/12/07 02:38:39;;;;;;;15.82;8.73;;;;;;;0.24;100.00;98279.41;4218100;28;20515;-76
2022/12/07 02:41:00;;;;;;;9.25;5.80;;;;;;;0.26;100.00;98279.09;4219385;28;20043;-76
2022/12/07 02:43:33;;;;;;;9.52;5.90;;;;;;;0.32;100.00;98274.31;4219215;28;20051;-76
2022/12/07 02:45:36;;;;;;;;;;;;;;;0.31;100.00;98270.78;4220790;27;20048;-76
2022/12/07 02:47:37;;;;;;;6.22;4.20;;;;;;;0.35;100.00;98271.78;4220632;27;19926;-76
2022/12/07 02:49:39;;;;;;;8.57;4.47;;;;;;;0.38;100.00;98275.78;4221222;27;20070;-76
2022/12/07 02:51:43;;;;;;;12.43;4.97;;;;;;;0.36;100.00;98278.00;4221893;27;20079;-76
2022/12/07 02:53:44;;;;;;;9.68;4.75;;;;;;;0.34;100.00;98275.63;4220339;28;20043;-77
2022/12/07 02:55:45;;;;;;;8.05;4.65;;;;;;;0.39;100.00;98266.47;4219851;28;20069;-76
2022/12/07 02:58:03;;;;;;;8.35;4.63;;;;;;;0.47;100.00;98258.34;4218676;28;20040;-76
2022/12/07 03:00:03;;;;;;;7.60;5.03;;;;;;;0.49;100.00;98264.25;4220165;28;20047;-76
2022/12/07 03:02:18;;;;;;;8.48;5.03;;;;;;;0.51;100.00;98259.31;4210506;28;20028;-76
2022/12/07 03:04:28;;;;;;;8.30;4.20;;;;;;;0.54;100.00;98264.13;4220782;27;20112;-76
2022/12/07 03:06:35;;;;;;;9.38;4.78;;;;;;;0.55;100.00;98267.63;4218558;28;20062;-77
2022/12/07 03:08:48;;;;;;;7.32;4.90;;;;;;;0.60;100.00;98266.69;4220688;27;20403;-76
2022/12/07 03:11:21;;;;;;;6.47;4.35;;;;;;;0.55;100.00;98260.28;4219927;28;20089;-76
2022/12/07 03:13:29;;;;;;;9.15;4.85;;;;;;;0.51;100.00;98263.97;4210496;27;20442;-76
2022/12/07 03:15:59;;;;;;;7.55;4.75;;;;;;;0.54;100.00;98266.03;4215518;28;20098;-77
2022/12/07 03:18:02;;;;;;;7.47;4.05;;;;;;;0.50;100.00;98263.16;4213012;28;20043;-76
2022/12/07 03:20:05;;;;;;;8.00;4.65;;;;;;;0.51;100.00;98256.59;4219949;27;20772;-76
2022/12/07 03:22:10;;;;;;;8.35;5.03;;;;;;;0.52;100.00;98249.22;4221454;27;20426;-76
2022/12/07 03:24:30;;;;;;;9.10;5.45;;;;;;;0.51;100.00;98247.63;4219161;27;20039;-76
2022/12/07 03:26:35;;;;;;;8.25;4.40;;;;;;;0.51;100.00;98236.75;4217561;28;20044;-76
2022/12/07 03:28:41;;;;;;;8.10;5.13;;;;;;;0.56;100.00;98244.75;4219792;28;20459;-76
2022/12/07 03:30:56;;;;;;;7.10;4.50;;;;;;;0.57;100.00;98233.53;4219727;27;20489;-76
2022/12/07 03:33:22;;;;;;;6.65;4.22;;;;;;;0.61;100.00;98236.44;4210234;28;20464;-76
2022/12/07 03:35:27;;;;;;;8.90;5.13;;;;;;;0.62;100.00;98234.50;4220895;28;20478;-76
2022/12/07 03:37:39;;;;;;;7.25;4.47;;;;;;;0.61;100.00;98224.75;4220694;27;20865;-76
2022/12/07 03:39:52;;;;;;;7.38;4.53;;;;;;;0.57;100.00;98219.91;4220396;28;20035;-76
2022/12/07 03:41:54;;;;;;;8.05;4.72;;;;;;;0.61;100.00;98216.56;4220549;28;20052;-76
2022/12/07 03:43:55;;;;;;;6.53;4.30;;;;;;;0.59;100.00;98221.53;4220469;27;20043;-76
2022/12/07 03:46:09;;;;;;;7.03;4.28;;;;;;;0.60;100.00;98220.41;4218081;27;20122;-76
2022/12/07 03:48:22;;;;;;;6.25;3.92;;;;;;;0.65;100.00;98225.69;4220770;27;20051;-76
2022/12/07 03:50:36;;;;;;;5.72;3.50;;;;;;;0.65;100.00;98220.25;4220610;28;20510;-76
2022/12/07 03:52:58;;;;;;;4.30;2.85;;;;;;;0.76;100.00;98233.25;4220585;28;20249;-76
2022/12/07 03:55:46;;;;;;;5.30;3.35;;;;;;;0.77;100.00;98234.84;4220375;28;20052;-77
2022/12/07 03:57:50;;;;;;;6.72;3.63;;;;;;;0.74;100.00;98234.66;4211102;28;20394;-76
2022/12/07 03:59:53;;;;;;;5.63;3.40;;;;;;;0.75;100.00;98234.38;4220406;27;20226;-76
2022/12/07 04:01:57;;;;;;;6.00;4.30;;;;;;;0.68;100.00;98230.53;4210399;28;20051;-76
2022/12/07 04:03:57;;;;;;;5.70;3.30;;;;;;;0.67;100.00;98237.09;4212950;27;20060;-76
2022/12/07 04:05:59;;;;;;;7.30;4.03;;;;;;;0.66;100.00;98232.72;4219222;27;20092;-76
2022/12/07 04:07:59;;;;;;;6.53;3.60;;;;;;;0.71;100.00;98232.59;4219497;27;20044;-76
2022/12/07 04:10:00;;;;;;;7.43;4.05;;;;;;;0.72;100.00;98234.19;4218953;27;20050;-76
2022/12/07 04:12:00;;;;;;;8.38;4.53;;;;;;;0.70;100.00;98226.34;4219698;28;20442;-75
2022/12/07 04:14:19;;;;;;;8.18;4.32;;;;;;;0.73;100.00;98231.16;4219104;27;20048;-76
2022/12/07 04:16:19;;;;;;;7.07;4.45;;;;;;;0.75;100.00;98231.66;4219958;27;20479;-76
2022/12/07 04:18:19;;;;;;;9.00;5.35;;;;;;;0.75;100.00;98228.94;4220398;27;20080;-76
2022/12/07 04:20:20;;;;;;;8.60;5.03;;;;;;;0.75;100.00;98225.41;4218770;27;20028;-76
2022/12/07 04:22:21;;;;;;;11.15;5.82;;;;;;;0.72;100.00;98232.28;4218707;28;20932;-77
2022/12/07 04:24:21;;;;;;;9.68;5.72;;;;;;;0.72;100.00;98234.19;4219470;27;20039;-76
2022/12/07 04:26:22;;;;;;;11.18;6.00;;;;;;;0.76;100.00;98237.88;4219400;28;20618;-76
2022/12/07 04:28:22;;;;;;;12.45;6.68;;;;;;;0.73;100.00;98233.88;4219082;27;20051;-76
2022/12/07 04:30:22;;;;;;;10.70;6.40;;;;;;;0.73;100.00;98236.59;4219148;27;20036;-76
2022/12/07 04:32:23;;;;;;;11.93;6.40;;;;;;;0.75;100.00;98228.94;4220272;27;20036;-77
2022/12/07 04:34:23;;;;;;;11.00;5.82;;;;;;;0.71;100.00;98224.41;4206085;28;20420;-76
2022/12/07 04:36:24;;;;;;;10.20;5.93;;;;;;;0.87;100.00;98233.72;4219084;27;20488;-76
2022/12/07 04:38:24;;;;;;;12.05;6.85;;;;;;;0.80;100.00;98230.66;4220185;27;20036;-76
2022/12/07 04:40:24;;;;;;;9.80;5.95;;;;;;;0.84;100.00;98227.00;4218764;27;20039;-76
2022/12/07 04:42:25;;;;;;;12.27;6.03;;;;;;;0.86;100.00;98223.16;4219792;28;20279;-76
2022/12/07 04:44:26;;;;;;;12.70;6.55;;;;;;;0.87;100.00;98222.81;4217666;28;20356;-77
2022/12/07 04:46:28;;;;;;;9.40;6.15;;;;;;;0.88;100.00;98223.63;4217704;28;20039;-76
2022/12/07 04:48:28;;;;;;;9.02;5.50;;;;;;;0.88;100.00;98226.34;4219490;28;20046;-77
2022/12/07 04:50:28;;;;;;;12.40;7.00;;;;;;;0.88;100.00;98226.34;4218274;28;20079;-76
2022/12/07 04:52:29;;;;;;;12.50;6.72;;;;;;;0.90;100.00;98222.19;4219592;27;20707;-77
2022/12/07 04:54:29;;;;;;;10.63;6.60;;;;;;;0.92;100.00;98219.97;4218260;28;20455;-76
2022/12/07 04:56:30;;;;;;;8.93;5.63;;;;;;;0.90;100.00;98215.94;4220274;28;20437;-76
2022/12/07 04:58:30;;;;;;;9.13;6.13;;;;;;;0.88;100.00;98221.69;4218051;27;20108;-76
2022/12/07 05:00:30;;;;;;;9.68;5.95;;;;;;;0.84;100.00;98216.09;4217266;28;20043;-77
2022/12/07 05:02:30;;;;;;;9.32;5.68;;;;;;;0.83;100.00;98213.72;4207489;27;20040;-77
2022/12/07 05:04:31;;;;;;;11.80;6.32;;;;;;;0.81;100.00;98221.38;4219423;27;20088;-77
2022/12/07 05:06:32;;;;;;;9.80;5.32;;;;;;;0.79;100.00;98218.19;4219984;27;20132;-77
2022/12/07 05:08:33;;;;;;;10.13;5.63;;;;;;;0.79;100.00;98216.25;4216911;27;20331;-77
2022/12/07 05:10:33;;;;;;;10.23;5.63;;;;;;;0.78;100.00;98216.59;4218788;28;20489;-77
2022/12/07 05:12:34;;;;;;;10.48;5.47;;;;;;;0.81;100.00;98215.94;4215299;28;20056;-76
2022/12/07 05:14:34;;;;;;;9.77;5.55;;;;;;;0.77;100.00;98215.78;4214744;27;20207;-76
2022/12/07 05:16:35;;;;;;;13.68;6.40;;;;;;;0.82;100.00;98220.25;4218138;27;20071;-76
2022/12/07 05:18:35;;;;;;;11.90;7.57;;;;;;;0.87;100.00;98222.03;4213875;27;20063;-77
2022/12/07 05:20:35;;;;;;;13.48;7.88;;;;;;;0.97;100.00;98216.25;4212424;27;20044;-76
2022/12/07 05:22:36;;;;;;;13.30;7.50;;;;;;;1.01;100.00;98219.94;4210989;28;20048;-76
2022/12/07 05:24:36;;;;;;;10.93;8.00;;;;;;;1.04;100.00;98211.13;4211884;27;20040;-76
2022/12/07 05:26:36;;;;;;;10.93;7.38;;;;;;;1.15;100.00;98225.22;4212239;27;20070;-76
2022/12/07 05:28:37;;;;;;;10.27;6.60;;;;;;;1.33;100.00;98213.19;4217500;27;20040;-76
2022/12/07 05:30:37;;;;;;;11.05;6.97;;;;;;;1.29;100.00;98217.66;4210555;27;20071;-76
2022/12/07 05:32:38;;;;;;;11.13;6.70;;;;;;;1.29;100.00;98223.91;4215786;28;20126;-76
2022/12/07 05:34:38;;;;;;;11.00;7.53;;;;;;;1.28;100.00;98216.88;4215161;28;20062;-76
2022/12/07 05:36:38;;;;;;;11.60;6.82;;;;;;;1.25;100.00;98227.63;4208169;28;20036;-75
2022/12/07 05:38:39;;;;;;;11.77;7.45;;;;;;;1.26;100.00;98218.31;4214961;28;20048;-76
2022/12/07 05:40:39;;;;;;;12.23;7.15;;;;;;;1.27;100.00;98214.47;4216016;28;20088;-76
2022/12/07 05:42:40;;;;;;;14.20;7.22;;;;;;;1.27;100.00;98215.25;4216617;28;20055;-76
2022/12/07 05:44:43;;;;;;;13.70;7.35;;;;;;;1.28;100.00;98219.59;4214991;28;20459;-76
2022/12/07 05:46:43;;;;;;;11.07;6.82;;;;;;;1.26;100.00;98227.28;4216754;28;20051;-76
2022/12/07 05:48:44;;;;;;;12.05;7.18;;;;;;;1.31;100.00;98224.38;4220174;28;20042;-76
2022/12/07 05:50:47;;;;;;;13.90;7.90;;;;;;;1.31;100.00;98223.59;4219802;27;20075;-76
2022/12/07 05:52:48;;;;;;;12.75;7.57;;;;;;;1.27;100.00;98236.28;4219336;28;20089;-76
2022/12/07 05:54:48;;;;;;;12.77;7.50;;;;;;;1.27;100.00;98222.66;4219922;27;20036;-76
2022/12/07 05:56:48;;;;;;;14.18;8.13;;;;;;;1.30;100.00;98232.88;4205730;27;20094;-76
2022/12/07 06:01:08;;;;;;;10.40;6.32;;;;;;;1.37;100.00;98230.47;4220874;27;20030;-76
2022/12/07 06:03:08;;;;;;;13.93;7.22;;;;;;;1.32;100.00;98233.34;4221475;27;20130;-76
2022/12/07 06:05:08;;;;;;;12.02;6.60;;;;;;;1.36;100.00;98217.97;4219005;28;20488;-76
2022/12/07 06:07:10;;;;;;;10.40;6.28;;;;;;;1.32;100.00;98217.00;4220773;28;20818;-76
2022/12/07 06:09:12;;;;;;;10.97;6.63;;;;;;;1.28;100.00;98227.75;4218209;28;20051;-76
2022/12/07 06:12:33;;;;;;;10.33;6.50;;;;;;;1.28;100.00;98229.69;4223023;28;20277;-76
2022/12/07 06:13:32;;;;;;;11.38;6.85;;;;;;;1.21;100.00;98238.34;4221310;27;20285;-76
2022/12/07 06:15:36;;;;;;;12.82;6.88;;;;;;;1.16;100.00;98233.09;4221062;27;20047;-76
2022/12/07 06:17:36;;;;;;;12.75;6.38;;;;;;;1.16;100.00;98234.97;4221322;27;20096;-76
2022/12/07 06:19:37;;;;;;;12.23;6.72;;;;;;;1.26;100.00;98243.66;4220992;27;20043;-76
2022/12/07 06:21:37;;;;;;;11.15;6.70;;;;;;;1.23;100.00;98229.84;4220414;27;20086;-76
2022/12/07 06:23:37;;;;;;;12.13;6.78;;;;;;;1.20;100.00;98225.06;4220721;27;20085;-76
2022/12/07 06:25:38;;;;;;;11.90;6.25;;;;;;;1.13;100.00;98237.22;4220612;27;20100;-76
2022/12/07 06:27:38;;;;;;;10.98;6.00;;;;;;;1.15;100.00;98228.72;4221088;27;20080;-76
2022/12/07 06:29:39;;;;;;;9.25;5.55;;;;;;;1.18;100.00;98230.03;4220568;28;20048;-76
2022/12/07 06:31:40;;;;;;;11.63;6.22;;;;;;;1.14;100.00;98229.84;4213658;28;20067;-76
2022/12/07 06:33:41;;;;;;;12.40;5.72;;;;;;;1.13;100.00;98229.06;4217954;28;20059;-76
2022/12/07 06:35:41;;;;;;;11.57;6.22;;;;;;;1.10;100.00;98226.19;4213846;28;20043;-76
2022/12/07 06:37:41;;;;;;;8.90;5.03;;;;;;;1.08;100.00;98218.34;4221683;27;20336;-76
2022/12/07 06:39:42;;;;;;;10.95;5.85;;;;;;;1.06;100.00;98226.00;4220475;28;20360;-76
2022/12/07 06:41:42;;;;;;;10.55;6.55;;;;;;;1.02;100.00;98237.91;4218416;28;20220;-77
2022/12/07 06:43:42;;;;;;;9.77;6.07;;;;;;;1.00;100.00;98234.69;4219103;28;20043;-76
2022/12/07 06:45:43;;;;;;;10.77;6.15;;;;;;;1.00;100.00;98226.53;4220210;27;20062;-77
2022/12/07 06:47:43;;;;;;;12.43;6.88;;;;;;;1.02;100.00;98230.53;4220236;28;20439;-76
2022/12/07 06:49:43;;;;;;;11.00;6.55;;;;;;;0.99;100.00;98233.06;4218752;28;20040;-76
2022/12/07 06:51:44;;;;;;;12.02;6.50;;;;;;;1.09;100.00;98240.94;4221367;27;20071;-76
2022/12/07 06:53:44;;;;;;;12.77;6.20;;;;;;;1.13;100.00;98245.41;4213546;28;20495;-77
2022/12/07 06:55:44;;;;;;;15.50;7.43;;;;;;;1.15;100.00;98247.81;4220244;28;20032;-77
2022/12/07 06:57:45;;;;;;;12.60;6.63;;;;;;;1.13;100.00;98253.59;4216428;28;20280;-77
2022/12/07 06:59:45;;;;;;;14.98;7.03;;;;;;;1.13;100.00;98250.84;4217730;28;20043;-77
2022/12/07 07:01:45;;;;;;;10.23;7.00;;;;;;;1.10;100.00;98248.78;4212872;28;20047;-77
2022/12/07 07:03:46;;;;;;;11.23;5.97;;;;;;;1.10;100.00;98251.50;4219584;28;20335;-77
2022/12/07 07:05:47;;;;;;;14.32;8.18;;;;;;;1.12;100.00;98245.75;4219946;28;20746;-77
2022/12/07 07:07:51;;;;;;;14.70;7.63;;;;;;;1.09;100.00;98252.63;4222216;27;20044;-77
2022/12/07 07:09:51;;;;;;;16.95;8.57;;;;;;;1.12;100.00;98246.53;4217281;28;20040;-77
2022/12/07 07:11:51;;;;;;;14.77;7.55;;;;;;;1.10;100.00;98251.50;4220072;27;20063;-77
2022/12/07 07:13:52;;;;;;;15.23;8.20;;;;;;;1.07;100.00;98248.63;4219360;28;20032;-77
2022/12/07 07:15:53;;;;;;;13.27;7.80;;;;;;;1.11;100.00;98255.84;4220952;28;20054;-77
2022/12/07 07:17:53;;;;;;;13.52;7.95;;;;;;;1.15;100.00;98253.25;4220470;27;20197;-77
2022/12/07 07:19:54;;;;;;;15.27;7.95;;;;;;;1.19;100.00;98247.97;4220555;27;20109;-77
2022/12/07 07:21:54;;;;;;;16.80;8.60;;;;;;;1.17;100.00;98252.97;4210438;28;20472;-77
2022/12/07 07:23:54;;;;;;;19.08;8.27;;;;;;;1.17;100.00;98247.50;4220252;28;20043;-77
2022/12/07 07:25:55;;;;;;;19.30;8.10;;;;;;;1.21;100.00;98248.44;4214803;28;20055;-77
2022/12/07 07:27:55;;;;;;;15.13;8.15;;;;;;;1.14;100.00;98246.22;4220325;27;20475;-77
2022/12/07 07:29:56;;;;;;;20.10;8.57;;;;;;;1.21;100.00;98253.91;4220939;28;20035;-77
2022/12/07 07:31:56;;;;;;;14.38;6.88;;;;;;;1.17;100.00;98250.25;4215172;28;20047;-77
2022/12/07 07:33:56;;;;;;;17.63;7.20;;;;;;;1.11;100.00;98253.13;4219621;27;20047;-77
2022/12/07 07:35:56;;;;;;;14.73;7.60;;;;;;;1.06;100.00;98253.25;4213112;28;20072;-77
2022/12/07 07:37:57;;;;;;;19.05;8.07;;;;;;;1.03;100.00;98250.38;4220041;28;20046;-77
2022/12/07 07:39:57;;;;;;;20.65;8.70;;;;;;;1.03;100.00;98247.66;4214216;28;20050;-77
2022/12/07 07:41:58;;;;;;;19.65;8.85;;;;;;;1.06;100.00;98247.00;4218051;28;20463;-77
2022/12/07 07:43:58;;;;;;;17.60;8.23;;;;;;;1.04;100.00;98250.06;4220157;28;20050;-77
2022/12/07 07:45:58;;;;;;;17.40;8.65;;;;;;;1.14;100.00;98254.38;4221277;27;20714;-77
2022/12/07 07:47:59;;;;;;;17.15;8.45;;;;;;;1.18;100.00;98249.09;4219411;27;20480;-77
2022/12/07 07:49:59;;;;;;;17.85;8.35;;;;;;;1.09;100.00;98254.56;4213585;28;20180;-77
2022/12/07 07:52:00;;;;;;;17.30;8.63;;;;;;;1.07;100.00;98249.41;4218640;28;20096;-77
2022/12/07 07:54:00;;;;;;;21.85;10.07;;;;;;;1.03;100.00;98245.75;4220527;27;20046;-77
2022/12/07 07:56:00;;;;;;;31.30;8.98;;;;;;;1.05;100.00;98245.41;4211249;28;20032;-77
2022/12/07 07:58:01;;;;;;;21.33;9.63;;;;;;;1.06;100.00;98250.53;4219257;28;20261;-77
2022/12/07 08:00:21;;;;;;;17.08;7.60;;;;;;;1.04;100.00;98241.88;4207993;28;20058;-77
2022/12/07 08:02:22;;;;;;;18.58;8.63;;;;;;;1.04;100.00;98252.00;4219211;28;20448;-77
2022/12/07 08:04:22;;;;;;;21.02;8.23;;;;;;;1.02;100.00;98241.41;4219830;27;20498;-77
2022/12/07 08:06:22;;;;;;;29.17;11.15;;;;;;;0.97;100.00;98247.00;4220447;27;20403;-77
2022/12/07 08:08:22;;;;;;;17.50;12.40;;;;;;;0.98;100.00;98239.63;4219163;27;20843;-77
2022/12/07 08:10:23;;;;;;;19.92;15.35;;;;;;;0.97;100.00;98246.22;4211194;28;20040;-77
2022/12/07 08:12:23;;;;;;;16.98;9.77;;;;;;;0.99;100.00;98242.03;4220729;28;20040;-77
2022/12/07 08:14:24;;;;;;;15.73;7.68;;;;;;;1.02;100.00;98252.31;4217907;27;20035;-77
2022/12/07 08:16:24;;;;;;;11.60;7.03;;;;;;;1.02;100.00;98251.50;4219890;28;20032;-77
2022/12/07 08:18:25;;;;;;;11.57;5.78;;;;;;;1.06;100.00;98245.09;4220030;27;20356;-77
2022/12/07 08:20:25;;;;;;;8.40;5.60;;;;;;;1.09;100.00;98257.28;4219851;28;20092;-77
2022/12/07 08:22:26;;;;;;;10.85;5.07;;;;;;;1.18;100.00;98260.81;4220563;28;20168;-77
2022/12/07 08:24:26;;;;;;;10.35;5.55;;;;;;;1.16;100.00;98260.34;4218966;28;20130;-77
2022/12/07 08:26:26;;;;;;;11.35;6.15;;;;;;;1.14;100.00;98262.56;4208961;28;20123;-77
2022/12/07 08:28:28;;;;;;;11.55;5.60;;;;;;;1.20;100.00;98264.00;4218014;28;20326;-77
2022/12/07 08:30:29;;;;;;;11.82;6.07;;;;;;;1.20;100.00;98266.72;4219055;28;20036;-77
2022/12/07 08:32:29;;;;;;;11.15;5.57;;;;;;;1.16;100.00;98263.06;4219468;28;20158;-77
2022/12/07 08:34:30;;;;;;;9.07;5.45;;;;;;;1.17;100.00;98272.03;4218513;28;20066;-77
2022/12/07 08:36:30;;;;;;;13.45;5.35;;;;;;;1.19;100.00;98264.34;4218145;28;20051;-77
2022/12/07 08:38:31;;;;;;;10.75;4.93;;;;;;;1.22;100.00;98269.13;4219376;28;20549;-77
2022/12/07 08:40:31;;;;;;;8.07;4.95;;;;;;;1.23;100.00;98268.00;4218869;28;20459;-76
2022/12/07 08:42:37;;;;;;;9.27;4.57;;;;;;;1.24;100.00;98270.44;4219011;28;20114;-77
2022/12/07 08:44:37;;;;;;;6.50;3.63;;;;;;;1.36;100.00;98269.75;4208197;28;20032;-77
2022/12/07 08:46:53;;;;;;;8.60;3.88;;;;;;;1.42;100.00;98270.41;4217730;28;20513;-77
2022/12/07 08:49:02;;;;;;;7.30;3.55;;;;;;;1.48;100.00;98269.09;4208368;28;20048;-77
2022/12/07 08:51:02;;;;;;;7.95;3.80;;;;;;;1.52;100.00;98275.53;4218819;27;20043;-77
2022/12/07 08:53:05;;;;;;;9.82;3.88;;;;;;;1.56;100.00;98260.91;4218692;27;20035;-77
2022/12/07 08:55:06;;;;;;;6.47;4.07;;;;;;;1.56;100.00;98265.56;4219434;27;20079;-77
2022/12/07 08:57:08;;;;;;;7.10;3.53;;;;;;;1.62;100.00;98267.78;4220282;28;20051;-77
2022/12/07 08:59:08;;;;;;;8.30;3.53;;;;;;;1.66;100.00;98271.50;4218844;27;20048;-77
2022/12/07 09:01:09;;;;;;;6.97;4.03;;;;;;;1.68;100.00;98271.97;4210946;28;20348;-78
2022/12/07 09:03:09;;;;;;;6.05;3.05;;;;;;;1.82;100.00;98277.22;4219222;27;20476;-77
2022/12/07 09:05:10;;;;;;;5.78;3.08;;;;;;;1.91;100.00;98274.47;4218055;28;20325;-77
2022/12/07 09:07:11;;;;;;;6.82;3.47;;;;;;;1.92;100.00;98271.41;4217591;28;20416;-77
2022/12/07 09:09:12;;;;;;;8.35;3.65;;;;;;;2.00;100.00;98268.97;4209050;28;20730;-77
2022/12/07 09:11:13;;;;;;;6.75;3.35;;;;;;;2.00;100.00;98282.63;4218965;28;20042;-77
2022/12/07 09:13:13;;;;;;;9.98;3.83;;;;;;;1.95;100.00;98275.41;4217986;28;20450;-77
2022/12/07 09:15:13;;;;;;;5.32;3.20;;;;;;;1.92;100.00;98279.59;4219028;28;20040;-77
2022/12/07 09:17:14;;;;;;;8.25;3.63;;;;;;;1.97;100.00;98278.59;4218207;27;20321;-77
2022/12/07 09:19:14;;;;;;;9.75;4.07;;;;;;;1.98;100.00;98286.47;4217723;28;20135;-77
2022/12/07 09:21:15;;;;;;;12.77;4.18;;;;;;;1.96;100.00;98277.81;4218047;28;20036;-77
2022/12/07 09:23:15;;;;;;;7.30;4.15;;;;;;;2.00;100.00;98274.44;4217052;27;20669;-77
2022/12/07 09:25:15;;;;;;;8.15;4.53;;;;;;;2.01;100.00;98276.03;4219120;28;20142;-77
2022/12/07 09:27:17;;;;;;;6.05;3.88;;;;;;;2.09;100.00;98292.38;4219009;27;20115;-77
2022/12/07 09:29:17;;;;;;;9.97;5.30;;;;;;;2.12;100.00;98297.19;4218768;28;20039;-77
2022/12/07 09:31:18;;;;;;;9.23;4.35;;;;;;;2.18;100.00;98267.78;4208917;28;20280;-77
2022/12/07 09:33:18;;;;;;;7.68;3.78;;;;;;;2.21;100.00;98280.75;4216059;28;20076;-78
2022/12/07 09:35:18;;;;;;;9.63;4.47;;;;;;;2.28;100.00;98275.59;4233897;27;20521;-77
2022/12/07 09:37:19;;;;;;;9.50;4.20;;;;;;;2.28;100.00;98267.41;4218797;28;20081;-77
2022/12/07 09:39:19;;;;;;;7.57;3.58;;;;;;;2.29;100.00;98274.47;4218664;28;20136;-77